sensor_id;sensor_type;location;lat;lon;timestamp;temperature;humidity
17489;DHT22;8861;52.644;4.734;2023-12-14T00:00:30;6.40;99.90
17489;DHT22;8861;52.644;4.734;2023-12-14T00:02:57;6.40;99.90
17489;DHT22;8861;52.644;4.734;2023-12-14T00:05:26;6.40;99.90
17489;DHT22;8861;52.644;4.734;2023-12-14T00:07:53;6.40;99.90
17489;DHT22;8861;52.644;4.734;2023-12-14T00:10:20;6.40;99.90
17489;DHT22;8861;52.644;4.734;2023-12-14T00:12:47;6.40;99.90
17489;DHT22;8861;52.644;4.734;2023-12-14T00:15:16;6.30;99.90
17489;DHT22;8861;52.644;4.734;2023-12-14T00:17:43;6.30;99.90
17489;DHT22;8861;52.644;4.734;2023-12-14T00:20:10;6.30;99.90
17489;DHT22;8861;52.644;4.734;2023-12-14T00:22:39;6.40;99.90
17489;DHT22;8861;52.644;4.734;2023-12-14T00:25:07;6.30;99.90
17489;DHT22;8861;52.644;4.734;2023-12-14T00:27:34;6.40;99.90
17489;DHT22;8861;52.644;4.734;2023-12-14T00:30:01;6.40;99.90
17489;DHT22;8861;52.644;4.734;2023-12-14T00:32:28;6.40;99.90
17489;DHT22;8861;52.644;4.734;2023-12-14T00:34:55;6.40;99.90
17489;DHT22;8861;52.644;4.734;2023-12-14T00:37:22;6.40;99.90
17489;DHT22;8861;52.644;4.734;2023-12-14T00:39:50;6.40;99.90
17489;DHT22;8861;52.644;4.734;2023-12-14T00:42:17;6.40;99.90
17489;DHT22;8861;52.644;4.734;2023-12-14T00:44:44;6.40;99.90
17489;DHT22;8861;52.644;4.734;2023-12-14T00:47:11;6.40;99.90
17489;DHT22;8861;52.644;4.734;2023-12-14T00:49:38;6.30;99.90
17489;DHT22;8861;52.644;4.734;2023-12-14T00:52:05;6.30;99.90
17489;DHT22;8861;52.644;4.734;2023-12-14T00:54:32;6.30;99.90
17489;DHT22;8861;52.644;4.734;2023-12-14T00:57:00;6.30;99.90
17489;DHT22;8861;52.644;4.734;2023-12-14T00:59:27;6.30;99.90
17489;DHT22;8861;52.644;4.734;2023-12-14T01:01:54;6.30;99.90
17489;DHT22;8861;52.644;4.734;2023-12-14T01:04:21;6.30;99.90
17489;DHT22;8861;52.644;4.734;2023-12-14T01:06:48;6.30;99.90
17489;DHT22;8861;52.644;4.734;2023-12-14T01:09:15;6.30;99.90
17489;DHT22;8861;52.644;4.734;2023-12-14T01:11:42;6.30;99.90
17489;DHT22;8861;52.644;4.734;2023-12-14T01:14:10;6.40;99.90
17489;DHT22;8861;52.644;4.734;2023-12-14T01:16:38;6.30;99.90
17489;DHT22;8861;52.644;4.734;2023-12-14T01:19:05;6.40;99.90
17489;DHT22;8861;52.644;4.734;2023-12-14T01:21:32;6.30;99.90
17489;DHT22;8861;52.644;4.734;2023-12-14T01:23:59;6.30;99.90
17489;DHT22;8861;52.644;4.734;2023-12-14T01:26:27;6.30;99.90
17489;DHT22;8861;52.644;4.734;2023-12-14T01:28:54;6.30;99.90
17489;DHT22;8861;52.644;4.734;2023-12-14T01:31:22;6.30;99.90
17489;DHT22;8861;52.644;4.734;2023-12-14T01:33:50;6.30;99.90
17489;DHT22;8861;52.644;4.734;2023-12-14T01:36:20;6.30;99.90
17489;DHT22;8861;52.644;4.734;2023-12-14T01:38:47;6.30;99.90
17489;DHT22;8861;52.644;4.734;2023-12-14T01:41:14;6.30;99.90
17489;DHT22;8861;52.644;4.734;2023-12-14T01:43:42;6.30;99.90
17489;DHT22;8861;52.644;4.734;2023-12-14T01:46:09;6.20;99.90
17489;DHT22;8861;52.644;4.734;2023-12-14T01:48:37;6.20;99.90
17489;DHT22;8861;52.644;4.734;2023-12-14T01:51:04;6.20;99.90
17489;DHT22;8861;52.644;4.734;2023-12-14T01:53:31;6.20;99.90
17489;DHT22;8861;52.644;4.734;2023-12-14T01:55:59;6.20;99.90
17489;DHT22;8861;52.644;4.734;2023-12-14T01:58:26;6.20;99.90
17489;DHT22;8861;52.644;4.734;2023-12-14T02:00:57;6.30;99.90
17489;DHT22;8861;52.644;4.734;2023-12-14T02:03:26;6.20;99.90
17489;DHT22;8861;52.644;4.734;2023-12-14T02:05:55;6.30;99.90
17489;DHT22;8861;52.644;4.734;2023-12-14T02:08:24;6.20;99.90
17489;DHT22;8861;52.644;4.734;2023-12-14T02:10:51;6.20;99.90
17489;DHT22;8861;52.644;4.734;2023-12-14T02:13:18;6.20;99.90
17489;DHT22;8861;52.644;4.734;2023-12-14T02:15:45;6.20;99.90
17489;DHT22;8861;52.644;4.734;2023-12-14T02:18:12;6.30;99.90
17489;DHT22;8861;52.644;4.734;2023-12-14T02:20:39;6.30;99.90
17489;DHT22;8861;52.644;4.734;2023-12-14T02:23:08;6.30;99.90
17489;DHT22;8861;52.644;4.734;2023-12-14T02:25:35;6.30;99.90
17489;DHT22;8861;52.644;4.734;2023-12-14T02:28:02;6.30;99.90
17489;DHT22;8861;52.644;4.734;2023-12-14T02:30:29;6.30;99.90
17489;DHT22;8861;52.644;4.734;2023-12-14T02:32:56;6.30;99.90
17489;DHT22;8861;52.644;4.734;2023-12-14T02:35:23;6.30;99.90
17489;DHT22;8861;52.644;4.734;2023-12-14T02:37:50;6.30;99.90
17489;DHT22;8861;52.644;4.734;2023-12-14T02:40:19;6.30;99.90
17489;DHT22;8861;52.644;4.734;2023-12-14T02:42:46;6.30;99.90
17489;DHT22;8861;52.644;4.734;2023-12-14T02:45:12;6.40;99.90
17489;DHT22;8861;52.644;4.734;2023-12-14T02:47:39;6.30;99.90
17489;DHT22;8861;52.644;4.734;2023-12-14T02:50:07;6.30;99.90
17489;DHT22;8861;52.644;4.734;2023-12-14T02:52:34;6.30;99.90
17489;DHT22;8861;52.644;4.734;2023-12-14T02:55:01;6.40;99.90
17489;DHT22;8861;52.644;4.734;2023-12-14T02:57:30;6.40;99.90
17489;DHT22;8861;52.644;4.734;2023-12-14T02:59:57;6.30;99.90
17489;DHT22;8861;52.644;4.734;2023-12-14T03:02:24;6.40;99.90
17489;DHT22;8861;52.644;4.734;2023-12-14T03:04:51;6.40;99.90
17489;DHT22;8861;52.644;4.734;2023-12-14T03:07:18;6.30;99.90
17489;DHT22;8861;52.644;4.734;2023-12-14T03:09:45;6.30;99.90
17489;DHT22;8861;52.644;4.734;2023-12-14T03:12:11;6.30;99.90
17489;DHT22;8861;52.644;4.734;2023-12-14T03:14:40;6.30;99.90
17489;DHT22;8861;52.644;4.734;2023-12-14T03:17:07;6.30;99.90
17489;DHT22;8861;52.644;4.734;2023-12-14T03:19:38;6.30;99.90
17489;DHT22;8861;52.644;4.734;2023-12-14T03:22:06;6.30;99.90
17489;DHT22;8861;52.644;4.734;2023-12-14T03:24:33;6.30;99.90
17489;DHT22;8861;52.644;4.734;2023-12-14T03:27:00;6.30;99.90
17489;DHT22;8861;52.644;4.734;2023-12-14T03:29:28;6.30;99.90
17489;DHT22;8861;52.644;4.734;2023-12-14T03:31:56;6.30;99.90
17489;DHT22;8861;52.644;4.734;2023-12-14T03:34:24;6.30;99.90
17489;DHT22;8861;52.644;4.734;2023-12-14T03:36:51;6.20;99.90
17489;DHT22;8861;52.644;4.734;2023-12-14T03:39:18;6.20;99.90
17489;DHT22;8861;52.644;4.734;2023-12-14T03:41:45;6.20;99.90
17489;DHT22;8861;52.644;4.734;2023-12-14T03:44:12;6.30;99.90
17489;DHT22;8861;52.644;4.734;2023-12-14T03:46:39;6.30;99.90
17489;DHT22;8861;52.644;4.734;2023-12-14T03:49:07;6.30;99.90
17489;DHT22;8861;52.644;4.734;2023-12-14T03:51:34;6.30;99.90
17489;DHT22;8861;52.644;4.734;2023-12-14T03:54:01;6.30;99.90
17489;DHT22;8861;52.644;4.734;2023-12-14T03:56:28;6.30;99.90
17489;DHT22;8861;52.644;4.734;2023-12-14T03:58:55;6.20;99.90
17489;DHT22;8861;52.644;4.734;2023-12-14T04:01:22;6.20;99.90
17489;DHT22;8861;52.644;4.734;2023-12-14T04:03:49;6.20;99.90
17489;DHT22;8861;52.644;4.734;2023-12-14T04:06:18;6.20;99.90
17489;DHT22;8861;52.644;4.734;2023-12-14T04:08:45;6.20;99.90
17489;DHT22;8861;52.644;4.734;2023-12-14T04:11:12;6.20;99.90
17489;DHT22;8861;52.644;4.734;2023-12-14T04:13:39;6.20;99.90
17489;DHT22;8861;52.644;4.734;2023-12-14T04:16:06;6.10;99.90
17489;DHT22;8861;52.644;4.734;2023-12-14T04:18:34;6.10;99.90
17489;DHT22;8861;52.644;4.734;2023-12-14T04:21:01;6.10;99.90
17489;DHT22;8861;52.644;4.734;2023-12-14T04:23:29;6.10;99.90
17489;DHT22;8861;52.644;4.734;2023-12-14T04:25:56;6.10;99.90
17489;DHT22;8861;52.644;4.734;2023-12-14T04:28:23;6.10;99.90
17489;DHT22;8861;52.644;4.734;2023-12-14T04:30:50;6.10;99.90
17489;DHT22;8861;52.644;4.734;2023-12-14T04:33:17;6.10;99.90
17489;DHT22;8861;52.644;4.734;2023-12-14T04:35:44;6.10;99.90
17489;DHT22;8861;52.644;4.734;2023-12-14T04:38:11;6.10;99.90
17489;DHT22;8861;52.644;4.734;2023-12-14T04:40:39;6.10;99.90
17489;DHT22;8861;52.644;4.734;2023-12-14T04:43:06;6.10;99.90
17489;DHT22;8861;52.644;4.734;2023-12-14T04:45:34;6.10;99.90
17489;DHT22;8861;52.644;4.734;2023-12-14T04:48:00;6.10;99.90
17489;DHT22;8861;52.644;4.734;2023-12-14T04:50:27;6.10;99.90
17489;DHT22;8861;52.644;4.734;2023-12-14T04:52:54;6.10;99.90
17489;DHT22;8861;52.644;4.734;2023-12-14T04:55:21;6.10;99.90
17489;DHT22;8861;52.644;4.734;2023-12-14T04:57:49;6.10;99.90
17489;DHT22;8861;52.644;4.734;2023-12-14T05:00:17;6.10;99.90
17489;DHT22;8861;52.644;4.734;2023-12-14T05:02:46;6.10;99.90
17489;DHT22;8861;52.644;4.734;2023-12-14T05:05:14;6.10;99.90
17489;DHT22;8861;52.644;4.734;2023-12-14T05:07:41;6.10;99.90
17489;DHT22;8861;52.644;4.734;2023-12-14T05:10:09;6.20;99.90
17489;DHT22;8861;52.644;4.734;2023-12-14T05:12:36;6.10;99.90
17489;DHT22;8861;52.644;4.734;2023-12-14T05:15:06;6.10;99.90
17489;DHT22;8861;52.644;4.734;2023-12-14T05:17:34;6.10;99.90
17489;DHT22;8861;52.644;4.734;2023-12-14T05:20:03;6.10;99.90
17489;DHT22;8861;52.644;4.734;2023-12-14T05:22:30;6.10;99.90
17489;DHT22;8861;52.644;4.734;2023-12-14T05:24:57;6.10;99.90
17489;DHT22;8861;52.644;4.734;2023-12-14T05:27:25;6.10;99.90
17489;DHT22;8861;52.644;4.734;2023-12-14T05:29:52;6.10;99.90
17489;DHT22;8861;52.644;4.734;2023-12-14T05:32:21;6.10;99.90
17489;DHT22;8861;52.644;4.734;2023-12-14T05:34:48;6.10;99.90
17489;DHT22;8861;52.644;4.734;2023-12-14T05:37:15;6.10;99.90
17489;DHT22;8861;52.644;4.734;2023-12-14T05:39:42;6.10;99.90
17489;DHT22;8861;52.644;4.734;2023-12-14T05:42:10;6.10;99.90
17489;DHT22;8861;52.644;4.734;2023-12-14T05:44:37;6.10;99.90
17489;DHT22;8861;52.644;4.734;2023-12-14T05:47:05;6.10;99.90
17489;DHT22;8861;52.644;4.734;2023-12-14T05:49:33;6.10;99.90
17489;DHT22;8861;52.644;4.734;2023-12-14T05:52:00;6.00;99.90
17489;DHT22;8861;52.644;4.734;2023-12-14T05:54:27;6.10;99.90
17489;DHT22;8861;52.644;4.734;2023-12-14T05:56:54;6.10;99.90
17489;DHT22;8861;52.644;4.734;2023-12-14T05:59:20;6.10;99.90
17489;DHT22;8861;52.644;4.734;2023-12-14T06:01:47;6.10;99.90
17489;DHT22;8861;52.644;4.734;2023-12-14T06:04:14;6.10;99.90
17489;DHT22;8861;52.644;4.734;2023-12-14T06:06:43;6.10;99.90
17489;DHT22;8861;52.644;4.734;2023-12-14T06:09:10;6.10;99.90
17489;DHT22;8861;52.644;4.734;2023-12-14T06:11:37;6.10;99.90
17489;DHT22;8861;52.644;4.734;2023-12-14T06:14:04;6.10;99.90
17489;DHT22;8861;52.644;4.734;2023-12-14T06:16:31;6.10;99.90
17489;DHT22;8861;52.644;4.734;2023-12-14T06:18:58;6.00;99.90
17489;DHT22;8861;52.644;4.734;2023-12-14T06:21:25;6.10;99.90
17489;DHT22;8861;52.644;4.734;2023-12-14T06:23:55;6.10;99.90
17489;DHT22;8861;52.644;4.734;2023-12-14T06:26:23;6.10;99.90
17489;DHT22;8861;52.644;4.734;2023-12-14T06:28:49;6.00;99.90
17489;DHT22;8861;52.644;4.734;2023-12-14T06:31:17;6.10;99.90
17489;DHT22;8861;52.644;4.734;2023-12-14T06:33:47;6.00;99.90
17489;DHT22;8861;52.644;4.734;2023-12-14T06:36:15;6.00;99.90
17489;DHT22;8861;52.644;4.734;2023-12-14T06:38:42;5.90;99.90
17489;DHT22;8861;52.644;4.734;2023-12-14T06:41:19;5.80;99.90
17489;DHT22;8861;52.644;4.734;2023-12-14T06:43:47;5.80;99.90
17489;DHT22;8861;52.644;4.734;2023-12-14T06:46:14;5.70;99.90
17489;DHT22;8861;52.644;4.734;2023-12-14T06:48:41;5.60;99.90
17489;DHT22;8861;52.644;4.734;2023-12-14T06:51:08;5.50;99.90
17489;DHT22;8861;52.644;4.734;2023-12-14T06:53:35;5.50;99.90
17489;DHT22;8861;52.644;4.734;2023-12-14T06:56:03;5.40;99.90
17489;DHT22;8861;52.644;4.734;2023-12-14T06:58:31;5.30;99.90
17489;DHT22;8861;52.644;4.734;2023-12-14T07:00:58;5.20;99.90
17489;DHT22;8861;52.644;4.734;2023-12-14T07:03:25;5.10;99.90
17489;DHT22;8861;52.644;4.734;2023-12-14T07:05:52;5.10;99.90
17489;DHT22;8861;52.644;4.734;2023-12-14T07:08:19;5.00;99.90
17489;DHT22;8861;52.644;4.734;2023-12-14T07:10:46;5.00;99.90
17489;DHT22;8861;52.644;4.734;2023-12-14T07:13:13;5.00;99.90
17489;DHT22;8861;52.644;4.734;2023-12-14T07:15:42;5.00;99.90
17489;DHT22;8861;52.644;4.734;2023-12-14T07:18:08;5.10;99.90
17489;DHT22;8861;52.644;4.734;2023-12-14T07:20:35;5.10;99.90
17489;DHT22;8861;52.644;4.734;2023-12-14T07:23:02;5.20;99.90
17489;DHT22;8861;52.644;4.734;2023-12-14T07:25:29;5.30;99.90
17489;DHT22;8861;52.644;4.734;2023-12-14T07:27:56;5.40;99.90
17489;DHT22;8861;52.644;4.734;2023-12-14T07:30:23;5.50;99.90
17489;DHT22;8861;52.644;4.734;2023-12-14T07:32:52;5.50;99.90
17489;DHT22;8861;52.644;4.734;2023-12-14T07:35:19;5.60;99.90
17489;DHT22;8861;52.644;4.734;2023-12-14T07:37:46;5.60;99.90
17489;DHT22;8861;52.644;4.734;2023-12-14T07:40:12;5.60;99.90
17489;DHT22;8861;52.644;4.734;2023-12-14T07:42:39;5.60;99.90
17489;DHT22;8861;52.644;4.734;2023-12-14T07:45:08;5.60;99.90
17489;DHT22;8861;52.644;4.734;2023-12-14T07:47:35;5.60;99.90
17489;DHT22;8861;52.644;4.734;2023-12-14T07:50:05;5.60;99.90
17489;DHT22;8861;52.644;4.734;2023-12-14T07:52:32;5.50;99.90
17489;DHT22;8861;52.644;4.734;2023-12-14T07:55:00;5.40;99.90
17489;DHT22;8861;52.644;4.734;2023-12-14T07:57:28;5.30;99.90
17489;DHT22;8861;52.644;4.734;2023-12-14T07:59:55;5.20;99.90
17489;DHT22;8861;52.644;4.734;2023-12-14T08:02:22;5.00;99.90
17489;DHT22;8861;52.644;4.734;2023-12-14T08:04:51;4.90;99.90
17489;DHT22;8861;52.644;4.734;2023-12-14T08:07:19;4.90;99.90
17489;DHT22;8861;52.644;4.734;2023-12-14T08:09:46;4.80;99.90
17489;DHT22;8861;52.644;4.734;2023-12-14T08:12:13;4.80;99.90
17489;DHT22;8861;52.644;4.734;2023-12-14T08:14:41;4.80;99.90
17489;DHT22;8861;52.644;4.734;2023-12-14T08:17:09;4.80;99.90
17489;DHT22;8861;52.644;4.734;2023-12-14T08:19:36;4.70;99.90
17489;DHT22;8861;52.644;4.734;2023-12-14T08:22:03;4.70;99.90
17489;DHT22;8861;52.644;4.734;2023-12-14T08:24:32;4.80;99.90
17489;DHT22;8861;52.644;4.734;2023-12-14T08:26:59;4.80;99.90
17489;DHT22;8861;52.644;4.734;2023-12-14T08:29:26;4.90;99.90
17489;DHT22;8861;52.644;4.734;2023-12-14T08:31:53;4.90;99.90
17489;DHT22;8861;52.644;4.734;2023-12-14T08:34:22;5.00;99.90
17489;DHT22;8861;52.644;4.734;2023-12-14T08:36:49;5.10;99.90
17489;DHT22;8861;52.644;4.734;2023-12-14T08:39:16;5.10;99.90
17489;DHT22;8861;52.644;4.734;2023-12-14T08:41:45;5.30;99.90
17489;DHT22;8861;52.644;4.734;2023-12-14T08:44:12;5.30;99.90
17489;DHT22;8861;52.644;4.734;2023-12-14T08:46:40;5.40;99.90
17489;DHT22;8861;52.644;4.734;2023-12-14T08:49:07;5.50;99.90
17489;DHT22;8861;52.644;4.734;2023-12-14T08:51:34;5.60;99.90
17489;DHT22;8861;52.644;4.734;2023-12-14T08:54:01;5.70;99.90
17489;DHT22;8861;52.644;4.734;2023-12-14T08:56:29;5.80;99.90
17489;DHT22;8861;52.644;4.734;2023-12-14T08:58:57;5.80;99.90
17489;DHT22;8861;52.644;4.734;2023-12-14T09:01:25;5.90;99.90
17489;DHT22;8861;52.644;4.734;2023-12-14T09:03:52;6.00;99.90
17489;DHT22;8861;52.644;4.734;2023-12-14T09:06:19;6.00;99.90
17489;DHT22;8861;52.644;4.734;2023-12-14T09:08:46;6.10;99.90
17489;DHT22;8861;52.644;4.734;2023-12-14T09:11:13;6.20;99.90
17489;DHT22;8861;52.644;4.734;2023-12-14T09:13:40;6.10;99.90
17489;DHT22;8861;52.644;4.734;2023-12-14T09:16:09;6.20;99.90
17489;DHT22;8861;52.644;4.734;2023-12-14T09:18:36;6.10;99.90
17489;DHT22;8861;52.644;4.734;2023-12-14T09:21:03;6.20;99.90
17489;DHT22;8861;52.644;4.734;2023-12-14T09:23:30;6.20;99.90
17489;DHT22;8861;52.644;4.734;2023-12-14T09:25:57;6.30;99.90
17489;DHT22;8861;52.644;4.734;2023-12-14T09:28:24;6.40;99.90
17489;DHT22;8861;52.644;4.734;2023-12-14T09:30:52;6.40;99.90
17489;DHT22;8861;52.644;4.734;2023-12-14T09:33:20;6.50;99.90
17489;DHT22;8861;52.644;4.734;2023-12-14T09:35:47;6.50;99.90
17489;DHT22;8861;52.644;4.734;2023-12-14T09:38:14;6.50;99.90
17489;DHT22;8861;52.644;4.734;2023-12-14T09:40:43;6.60;99.90
17489;DHT22;8861;52.644;4.734;2023-12-14T09:43:10;6.60;99.90
17489;DHT22;8861;52.644;4.734;2023-12-14T09:45:40;6.70;99.90
17489;DHT22;8861;52.644;4.734;2023-12-14T09:48:10;6.70;99.90
17489;DHT22;8861;52.644;4.734;2023-12-14T09:50:40;6.70;99.90
17489;DHT22;8861;52.644;4.734;2023-12-14T09:53:08;6.70;99.90
17489;DHT22;8861;52.644;4.734;2023-12-14T09:55:35;6.80;99.90
17489;DHT22;8861;52.644;4.734;2023-12-14T09:58:02;6.80;99.90
17489;DHT22;8861;52.644;4.734;2023-12-14T10:00:36;6.80;99.90
17489;DHT22;8861;52.644;4.734;2023-12-14T10:03:22;6.90;99.90
17489;DHT22;8861;52.644;4.734;2023-12-14T10:05:53;6.90;99.90
17489;DHT22;8861;52.644;4.734;2023-12-14T10:08:20;6.90;99.90
17489;DHT22;8861;52.644;4.734;2023-12-14T10:10:49;6.90;99.90
17489;DHT22;8861;52.644;4.734;2023-12-14T10:13:18;7.00;99.90
17489;DHT22;8861;52.644;4.734;2023-12-14T10:15:46;7.00;99.90
17489;DHT22;8861;52.644;4.734;2023-12-14T10:18:21;7.10;99.90
17489;DHT22;8861;52.644;4.734;2023-12-14T10:20:48;7.20;99.90
17489;DHT22;8861;52.644;4.734;2023-12-14T10:23:17;7.20;99.90
17489;DHT22;8861;52.644;4.734;2023-12-14T10:25:44;7.20;99.90
17489;DHT22;8861;52.644;4.734;2023-12-14T10:28:12;7.10;99.90
17489;DHT22;8861;52.644;4.734;2023-12-14T10:30:40;7.00;99.90
17489;DHT22;8861;52.644;4.734;2023-12-14T10:33:07;6.90;99.90
17489;DHT22;8861;52.644;4.734;2023-12-14T10:35:34;6.80;99.90
17489;DHT22;8861;52.644;4.734;2023-12-14T10:38:03;6.70;99.90
17489;DHT22;8861;52.644;4.734;2023-12-14T10:40:32;6.60;99.90
17489;DHT22;8861;52.644;4.734;2023-12-14T10:43:00;6.60;99.90
17489;DHT22;8861;52.644;4.734;2023-12-14T10:45:31;6.50;99.90
17489;DHT22;8861;52.644;4.734;2023-12-14T10:47:59;6.40;99.90
17489;DHT22;8861;52.644;4.734;2023-12-14T10:50:28;6.40;99.90
17489;DHT22;8861;52.644;4.734;2023-12-14T10:52:57;6.40;99.90
17489;DHT22;8861;52.644;4.734;2023-12-14T10:55:28;6.50;99.90
17489;DHT22;8861;52.644;4.734;2023-12-14T10:57:58;6.70;99.90
17489;DHT22;8861;52.644;4.734;2023-12-14T11:00:26;6.90;99.90
17489;DHT22;8861;52.644;4.734;2023-12-14T11:02:54;7.10;99.90
17489;DHT22;8861;52.644;4.734;2023-12-14T11:05:22;7.20;99.90
17489;DHT22;8861;52.644;4.734;2023-12-14T11:07:56;7.30;99.90
17489;DHT22;8861;52.644;4.734;2023-12-14T11:10:37;7.40;99.90
17489;DHT22;8861;52.644;4.734;2023-12-14T11:13:07;7.50;99.90
17489;DHT22;8861;52.644;4.734;2023-12-14T11:15:36;7.60;99.90
17489;DHT22;8861;52.644;4.734;2023-12-14T11:18:25;7.70;99.90
17489;DHT22;8861;52.644;4.734;2023-12-14T11:20:54;7.80;99.90
17489;DHT22;8861;52.644;4.734;2023-12-14T11:23:30;7.80;99.90
17489;DHT22;8861;52.644;4.734;2023-12-14T11:25:59;7.80;99.90
17489;DHT22;8861;52.644;4.734;2023-12-14T11:28:30;7.70;99.90
17489;DHT22;8861;52.644;4.734;2023-12-14T11:30:57;7.70;99.90
17489;DHT22;8861;52.644;4.734;2023-12-14T11:33:25;7.70;99.90
17489;DHT22;8861;52.644;4.734;2023-12-14T11:35:54;7.60;99.90
17489;DHT22;8861;52.644;4.734;2023-12-14T11:38:21;7.70;99.90
17489;DHT22;8861;52.644;4.734;2023-12-14T11:40:49;7.70;99.90
17489;DHT22;8861;52.644;4.734;2023-12-14T11:43:16;7.80;99.90
17489;DHT22;8861;52.644;4.734;2023-12-14T11:45:47;7.90;99.90
17489;DHT22;8861;52.644;4.734;2023-12-14T11:48:14;7.90;99.90
17489;DHT22;8861;52.644;4.734;2023-12-14T11:50:42;8.00;99.90
17489;DHT22;8861;52.644;4.734;2023-12-14T11:53:10;8.10;99.90
17489;DHT22;8861;52.644;4.734;2023-12-14T11:55:40;8.10;99.90
17489;DHT22;8861;52.644;4.734;2023-12-14T11:58:07;8.00;99.90
17489;DHT22;8861;52.644;4.734;2023-12-14T12:00:34;8.00;99.90
17489;DHT22;8861;52.644;4.734;2023-12-14T12:03:12;8.00;99.90
17489;DHT22;8861;52.644;4.734;2023-12-14T12:05:43;7.90;99.90
17489;DHT22;8861;52.644;4.734;2023-12-14T12:08:11;7.90;99.90
17489;DHT22;8861;52.644;4.734;2023-12-14T12:10:39;8.00;99.90
17489;DHT22;8861;52.644;4.734;2023-12-14T12:13:07;8.00;99.90
17489;DHT22;8861;52.644;4.734;2023-12-14T12:15:35;8.20;99.90
17489;DHT22;8861;52.644;4.734;2023-12-14T12:18:04;8.30;99.90
17489;DHT22;8861;52.644;4.734;2023-12-14T12:20:33;8.30;99.90
17489;DHT22;8861;52.644;4.734;2023-12-14T12:23:01;8.30;99.90
17489;DHT22;8861;52.644;4.734;2023-12-14T12:25:28;8.20;99.90
17489;DHT22;8861;52.644;4.734;2023-12-14T12:27:56;8.00;99.90
17489;DHT22;8861;52.644;4.734;2023-12-14T12:30:22;8.00;99.90
17489;DHT22;8861;52.644;4.734;2023-12-14T12:32:49;7.90;99.90
17489;DHT22;8861;52.644;4.734;2023-12-14T12:35:17;7.80;99.90
17489;DHT22;8861;52.644;4.734;2023-12-14T12:37:45;7.80;99.90
17489;DHT22;8861;52.644;4.734;2023-12-14T12:40:13;7.80;99.90
17489;DHT22;8861;52.644;4.734;2023-12-14T12:42:45;7.80;99.90
17489;DHT22;8861;52.644;4.734;2023-12-14T12:45:14;7.90;99.90
17489;DHT22;8861;52.644;4.734;2023-12-14T12:47:42;7.90;99.90
17489;DHT22;8861;52.644;4.734;2023-12-14T12:50:09;7.90;99.90
17489;DHT22;8861;52.644;4.734;2023-12-14T12:52:36;8.00;99.90
17489;DHT22;8861;52.644;4.734;2023-12-14T12:55:06;8.00;99.90
17489;DHT22;8861;52.644;4.734;2023-12-14T12:57:34;8.10;99.90
17489;DHT22;8861;52.644;4.734;2023-12-14T13:00:02;8.10;99.90
17489;DHT22;8861;52.644;4.734;2023-12-14T13:02:29;8.20;99.90
17489;DHT22;8861;52.644;4.734;2023-12-14T13:04:56;8.10;99.90
17489;DHT22;8861;52.644;4.734;2023-12-14T13:07:23;8.10;99.90
17489;DHT22;8861;52.644;4.734;2023-12-14T13:09:50;8.10;99.90
17489;DHT22;8861;52.644;4.734;2023-12-14T13:12:19;8.10;99.90
17489;DHT22;8861;52.644;4.734;2023-12-14T13:14:46;8.00;99.90
17489;DHT22;8861;52.644;4.734;2023-12-14T13:17:13;8.00;99.90
17489;DHT22;8861;52.644;4.734;2023-12-14T13:19:42;8.00;99.90
17489;DHT22;8861;52.644;4.734;2023-12-14T13:22:09;7.90;99.90
17489;DHT22;8861;52.644;4.734;2023-12-14T13:24:36;7.90;99.90
17489;DHT22;8861;52.644;4.734;2023-12-14T13:27:04;7.80;99.90
17489;DHT22;8861;52.644;4.734;2023-12-14T13:29:32;7.80;99.90
17489;DHT22;8861;52.644;4.734;2023-12-14T13:32:00;7.70;99.90
17489;DHT22;8861;52.644;4.734;2023-12-14T13:34:28;7.70;99.90
17489;DHT22;8861;52.644;4.734;2023-12-14T13:36:55;7.60;99.90
17489;DHT22;8861;52.644;4.734;2023-12-14T13:39:22;7.50;99.90
17489;DHT22;8861;52.644;4.734;2023-12-14T13:41:49;7.50;99.90
17489;DHT22;8861;52.644;4.734;2023-12-14T13:44:16;7.40;99.90
17489;DHT22;8861;52.644;4.734;2023-12-14T13:46:44;7.40;99.90
17489;DHT22;8861;52.644;4.734;2023-12-14T13:49:11;7.30;99.90
17489;DHT22;8861;52.644;4.734;2023-12-14T13:51:38;7.20;99.90
17489;DHT22;8861;52.644;4.734;2023-12-14T13:54:05;7.10;99.90
17489;DHT22;8861;52.644;4.734;2023-12-14T13:56:32;7.10;99.90
17489;DHT22;8861;52.644;4.734;2023-12-14T13:58:59;7.00;99.90
17489;DHT22;8861;52.644;4.734;2023-12-14T14:01:26;7.00;99.90
17489;DHT22;8861;52.644;4.734;2023-12-14T14:03:54;6.90;99.90
17489;DHT22;8861;52.644;4.734;2023-12-14T14:06:21;6.80;99.90
17489;DHT22;8861;52.644;4.734;2023-12-14T14:08:49;6.80;99.90
17489;DHT22;8861;52.644;4.734;2023-12-14T14:11:16;6.80;99.90
17489;DHT22;8861;52.644;4.734;2023-12-14T14:13:43;6.80;99.90
17489;DHT22;8861;52.644;4.734;2023-12-14T14:16:10;6.80;99.90
17489;DHT22;8861;52.644;4.734;2023-12-14T14:18:37;6.70;99.90
17489;DHT22;8861;52.644;4.734;2023-12-14T14:21:06;6.70;99.90
17489;DHT22;8861;52.644;4.734;2023-12-14T14:23:34;6.80;99.90
17489;DHT22;8861;52.644;4.734;2023-12-14T14:26:01;6.80;99.90
17489;DHT22;8861;52.644;4.734;2023-12-14T14:28:28;6.80;99.90
17489;DHT22;8861;52.644;4.734;2023-12-14T14:30:55;6.80;99.90
17489;DHT22;8861;52.644;4.734;2023-12-14T14:33:22;6.70;99.90
17489;DHT22;8861;52.644;4.734;2023-12-14T14:35:50;6.70;99.90
17489;DHT22;8861;52.644;4.734;2023-12-14T14:38:19;6.70;99.90
17489;DHT22;8861;52.644;4.734;2023-12-14T14:40:46;6.70;99.90
17489;DHT22;8861;52.644;4.734;2023-12-14T14:43:14;6.70;99.90
17489;DHT22;8861;52.644;4.734;2023-12-14T14:45:41;6.70;99.90
17489;DHT22;8861;52.644;4.734;2023-12-14T14:48:09;6.70;99.90
17489;DHT22;8861;52.644;4.734;2023-12-14T14:50:36;6.70;99.90
17489;DHT22;8861;52.644;4.734;2023-12-14T14:53:03;6.80;99.90
17489;DHT22;8861;52.644;4.734;2023-12-14T14:55:31;6.80;99.90
17489;DHT22;8861;52.644;4.734;2023-12-14T14:58:00;6.80;99.90
17489;DHT22;8861;52.644;4.734;2023-12-14T15:00:27;6.70;99.90
17489;DHT22;8861;52.644;4.734;2023-12-14T15:02:54;6.70;99.90
17489;DHT22;8861;52.644;4.734;2023-12-14T15:05:21;6.70;99.90
17489;DHT22;8861;52.644;4.734;2023-12-14T15:07:48;6.70;99.90
17489;DHT22;8861;52.644;4.734;2023-12-14T15:10:16;6.60;99.90
17489;DHT22;8861;52.644;4.734;2023-12-14T15:12:44;6.60;99.90
17489;DHT22;8861;52.644;4.734;2023-12-14T15:15:11;6.60;99.90
17489;DHT22;8861;52.644;4.734;2023-12-14T15:17:38;6.60;99.90
17489;DHT22;8861;52.644;4.734;2023-12-14T15:20:06;6.60;99.90
17489;DHT22;8861;52.644;4.734;2023-12-14T15:22:35;6.70;99.90
17489;DHT22;8861;52.644;4.734;2023-12-14T15:25:02;6.70;99.90
17489;DHT22;8861;52.644;4.734;2023-12-14T15:27:29;6.60;99.90
17489;DHT22;8861;52.644;4.734;2023-12-14T15:29:59;6.60;99.90
17489;DHT22;8861;52.644;4.734;2023-12-14T15:32:26;6.60;99.90
17489;DHT22;8861;52.644;4.734;2023-12-14T15:34:53;6.60;99.90
17489;DHT22;8861;52.644;4.734;2023-12-14T15:37:20;6.60;99.90
17489;DHT22;8861;52.644;4.734;2023-12-14T15:39:47;6.60;99.90
17489;DHT22;8861;52.644;4.734;2023-12-14T15:42:15;6.70;99.90
17489;DHT22;8861;52.644;4.734;2023-12-14T15:44:42;6.70;99.90
17489;DHT22;8861;52.644;4.734;2023-12-14T15:47:11;6.70;99.90
17489;DHT22;8861;52.644;4.734;2023-12-14T15:49:38;6.70;99.90
17489;DHT22;8861;52.644;4.734;2023-12-14T15:52:05;6.70;99.90
17489;DHT22;8861;52.644;4.734;2023-12-14T15:54:32;6.70;99.90
17489;DHT22;8861;52.644;4.734;2023-12-14T15:56:59;6.70;99.90
17489;DHT22;8861;52.644;4.734;2023-12-14T15:59:26;6.70;99.90
17489;DHT22;8861;52.644;4.734;2023-12-14T16:01:54;6.70;99.90
17489;DHT22;8861;52.644;4.734;2023-12-14T16:04:22;6.70;99.90